Time;durP1;ratioP1;P1;durP2;ratioP2;P2;SDS_P1;SDS_P2;PMS_P1;PMS_P2;Temp;Humidity;BMP_temperature;BMP_pressure;BME280_temperature;BME280_humidity;BME280_pressure;Samples;Min_cycle;Max_cycle;Signal;HPM_P1;HPM_P2
2021/05/08 00:01:15;;;;;;;8.25;5.25;;;5.70;99.90;;;;;;5092543;28;20039;-85
2021/05/08 00:03:44;;;;;;;9.25;5.78;;;5.60;99.90;;;;;;5109516;28;20028;-86
2021/05/08 00:06:12;;;;;;;7.38;5.50;;;5.60;99.90;;;;;;5092885;28;20031;-85
2021/05/08 00:08:39;;;;;;;7.63;5.65;;;5.60;99.90;;;;;;5092538;28;20038;-85
2021/05/08 00:11:06;;;;;;;10.38;6.22;;;5.60;99.90;;;;;;5109118;28;20036;-85
2021/05/08 00:13:34;;;;;;;9.68;6.10;;;5.50;99.90;;;;;;5109079;28;20043;-84
2021/05/08 00:16:02;;;;;;;8.77;6.57;;;5.40;99.90;;;;;;5060035;28;20069;-85
2021/05/08 00:18:28;;;;;;;8.88;6.35;;;5.30;99.90;;;;;;5092291;28;20035;-84
2021/05/08 00:20:58;;;;;;;8.57;5.93;;;5.30;99.90;;;;;;5102748;27;20031;-85
2021/05/08 00:23:30;;;;;;;8.55;5.82;;;5.30;99.90;;;;;;5112955;27;20446;-85
2021/05/08 00:25:58;;;;;;;8.68;6.13;;;5.30;99.90;;;;;;5111938;27;20036;-85
2021/05/08 00:28:26;;;;;;;9.77;6.72;;;5.20;99.90;;;;;;5094604;27;20082;-86
2021/05/08 00:30:58;;;;;;;9.60;7.50;;;5.20;99.90;;;;;;5109040;28;20039;-85
2021/05/08 00:33:26;;;;;;;10.27;7.18;;;5.20;99.90;;;;;;5108075;28;20600;-84
2021/05/08 00:35:54;;;;;;;9.35;6.82;;;5.10;99.90;;;;;;5091897;28;20143;-86
2021/05/08 00:38:21;;;;;;;10.65;6.70;;;5.10;99.90;;;;;;5074806;28;20032;-86
2021/05/08 00:40:48;;;;;;;8.85;5.88;;;5.10;99.90;;;;;;5097399;28;20036;-86
2021/05/08 00:43:23;;;;;;;8.18;5.65;;;5.00;99.90;;;;;;5082754;28;20114;-86
2021/05/08 00:45:55;;;;;;;8.40;6.03;;;5.10;99.90;;;;;;5124873;27;20104;-86
2021/05/08 00:48:23;;;;;;;8.38;6.20;;;5.10;99.90;;;;;;5095506;27;20058;-85
2021/05/08 00:50:52;;;;;;;8.63;5.88;;;5.00;99.90;;;;;;5095272;27;20046;-84
2021/05/08 00:53:23;;;;;;;8.15;6.20;;;5.00;99.90;;;;;;5117803;27;20035;-86
2021/05/08 00:55:50;;;;;;;8.35;5.93;;;5.00;99.90;;;;;;5108766;27;20043;-86
2021/05/08 00:58:17;;;;;;;8.55;5.72;;;5.00;99.90;;;;;;5090812;28;20038;-87
2021/05/08 01:00:57;;;;;;;8.68;5.82;;;5.00;99.90;;;;;;5091275;28;20032;-86
2021/05/08 01:03:35;;;;;;;7.72;5.72;;;5.00;99.90;;;;;;5105074;27;20039;-86
2021/05/08 01:06:02;;;;;;;8.23;5.70;;;5.10;99.90;;;;;;5092585;28;20042;-86
2021/05/08 01:08:34;;;;;;;8.38;6.28;;;5.00;99.90;;;;;;5091003;28;20088;-86
2021/05/08 01:11:07;;;;;;;9.37;6.43;;;5.00;99.90;;;;;;5092558;28;20038;-87
2021/05/08 01:13:33;;;;;;;8.95;6.95;;;5.00;99.90;;;;;;5106725;27;20035;-86
2021/05/08 01:15:59;;;;;;;9.02;7.05;;;4.90;99.90;;;;;;5094915;27;20487;-86
2021/05/08 01:18:26;;;;;;;8.82;7.05;;;4.90;99.90;;;;;;5080613;27;20099;-85
2021/05/08 01:20:53;;;;;;;10.40;6.97;;;4.80;99.90;;;;;;5094040;28;20035;-85
2021/05/08 01:23:19;;;;;;;9.05;7.03;;;4.80;99.90;;;;;;5062015;28;20457;-85
2021/05/08 01:25:45;;;;;;;9.50;6.47;;;4.80;99.90;;;;;;5114488;28;20093;-84
2021/05/08 01:28:11;;;;;;;8.02;6.75;;;4.80;99.90;;;;;;5095719;28;20131;-85
2021/05/08 01:30:39;;;;;;;9.32;6.50;;;4.70;99.90;;;;;;5079219;28;20062;-84
2021/05/08 01:33:06;;;;;;;10.15;7.85;;;4.70;99.90;;;;;;5095879;28;20044;-85
2021/05/08 01:35:34;;;;;;;12.98;8.18;;;4.70;99.90;;;;;;5095445;28;20472;-84
2021/05/08 01:38:00;;;;;;;10.02;7.80;;;4.60;99.90;;;;;;5095745;28;20070;-85
2021/05/08 01:40:29;;;;;;;10.85;7.93;;;4.60;99.90;;;;;;5114317;28;20109;-86
2021/05/08 01:42:56;;;;;;;9.43;7.22;;;4.60;99.90;;;;;;5096024;28;20043;-83
2021/05/08 01:45:23;;;;;;;9.20;6.78;;;4.60;99.90;;;;;;5095381;28;20051;-84
2021/05/08 01:47:52;;;;;;;10.80;7.43;;;4.60;99.90;;;;;;5096178;28;20036;-86
2021/05/08 01:50:21;;;;;;;10.18;6.55;;;4.60;99.90;;;;;;5095864;28;20031;-86
2021/05/08 01:52:47;;;;;;;9.65;7.20;;;4.70;99.90;;;;;;5095716;28;20376;-86
2021/05/08 01:55:19;;;;;;;10.10;7.43;;;4.70;99.90;;;;;;5095603;28;20515;-85
2021/05/08 01:57:53;;;;;;;9.35;6.75;;;4.70;99.90;;;;;;5095514;28;20162;-85
2021/05/08 02:00:26;;;;;;;8.90;6.85;;;4.80;99.90;;;;;;5095590;28;20028;-83
2021/05/08 02:02:54;;;;;;;10.25;7.03;;;4.80;99.90;;;;;;5089180;28;20056;-84
2021/05/08 02:05:21;;;;;;;9.02;7.60;;;4.90;99.90;;;;;;5095855;28;20387;-85
2021/05/08 02:07:50;;;;;;;9.40;7.18;;;4.90;99.90;;;;;;5095696;28;20028;-85
2021/05/08 02:10:16;;;;;;;8.65;6.95;;;4.90;99.90;;;;;;5113638;28;20071;-84
2021/05/08 02:12:42;;;;;;;8.88;6.60;;;4.90;99.90;;;;;;5093164;28;20039;-85
2021/05/08 02:15:17;;;;;;;9.98;7.40;;;4.90;99.90;;;;;;5098386;28;20047;-85
2021/05/08 02:17:43;;;;;;;8.73;6.75;;;5.00;99.90;;;;;;5098464;28;20028;-85
2021/05/08 02:20:21;;;;;;;9.45;7.15;;;5.00;99.90;;;;;;5098036;28;20032;-85
2021/05/08 02:22:48;;;;;;;10.20;7.65;;;5.10;99.90;;;;;;5098049;28;20031;-85
2021/05/08 02:25:15;;;;;;;9.02;6.70;;;5.10;99.90;;;;;;5098215;28;20059;-85
2021/05/08 02:27:41;;;;;;;9.73;7.65;;;5.10;99.90;;;;;;5099390;28;20444;-85
2021/05/08 02:30:10;;;;;;;10.77;8.20;;;5.20;99.90;;;;;;5082352;28;20036;-85
2021/05/08 02:32:36;;;;;;;9.23;6.97;;;5.20;99.90;;;;;;5099138;28;20024;-84
2021/05/08 02:35:03;;;;;;;11.80;7.88;;;5.30;99.90;;;;;;5099107;28;20031;-84
2021/05/08 02:37:30;;;;;;;10.18;7.90;;;5.40;99.90;;;;;;5099212;28;20032;-84
2021/05/08 02:39:56;;;;;;;10.85;7.97;;;5.40;99.90;;;;;;5082174;28;20131;-84
2021/05/08 02:42:22;;;;;;;12.70;8.23;;;5.50;99.90;;;;;;5099093;28;20122;-84
2021/05/08 02:44:49;;;;;;;10.48;7.50;;;5.50;99.90;;;;;;5116847;28;20455;-84
2021/05/08 02:47:19;;;;;;;10.50;8.20;;;5.60;99.90;;;;;;5082115;28;20142;-85
2021/05/08 02:49:54;;;;;;;10.88;7.95;;;5.60;99.90;;;;;;5117332;28;20046;-84
2021/05/08 02:52:22;;;;;;;11.27;9.30;;;5.60;99.90;;;;;;5099040;28;20081;-85
2021/05/08 02:54:49;;;;;;;9.48;7.88;;;5.60;99.90;;;;;;5099257;28;20118;-84
2021/05/08 02:57:15;;;;;;;11.77;8.68;;;5.70;99.90;;;;;;5098783;28;20035;-85
2021/05/08 02:59:42;;;;;;;10.00;7.78;;;5.70;99.90;;;;;;5081892;28;20107;-85
2021/05/08 03:02:09;;;;;;;9.30;7.03;;;5.70;99.90;;;;;;5098780;28;20122;-84
2021/05/08 03:04:35;;;;;;;10.18;7.18;;;5.70;99.90;;;;;;5082131;28;20040;-85
2021/05/08 03:07:04;;;;;;;8.15;6.55;;;5.70;99.90;;;;;;5098925;28;20036;-85
2021/05/08 03:09:31;;;;;;;8.85;6.57;;;5.80;99.90;;;;;;5098451;28;20032;-85
2021/05/08 03:11:58;;;;;;;8.70;6.85;;;5.80;99.90;;;;;;5116585;28;20028;-85
2021/05/08 03:14:24;;;;;;;9.38;7.03;;;5.80;99.90;;;;;;5098623;28;20046;-85
2021/05/08 03:16:50;;;;;;;9.50;7.32;;;5.80;99.90;;;;;;5081561;28;20039;-85
2021/05/08 03:19:16;;;;;;;9.25;7.53;;;5.80;99.90;;;;;;5097909;28;20035;-85
2021/05/08 03:21:43;;;;;;;8.63;6.53;;;5.80;99.90;;;;;;5098817;28;20468;-85
2021/05/08 03:24:13;;;;;;;9.07;6.95;;;5.80;99.90;;;;;;5098335;28;20120;-85
2021/05/08 03:26:44;;;;;;;9.00;7.00;;;5.80;99.90;;;;;;5116613;28;20036;-86
2021/05/08 03:29:20;;;;;;;9.27;6.85;;;5.70;99.90;;;;;;5097440;28;20038;-87
2021/05/08 03:31:48;;;;;;;9.15;6.85;;;5.60;99.90;;;;;;5116389;28;20148;-85
2021/05/08 03:34:15;;;;;;;8.80;6.53;;;5.50;99.90;;;;;;5098429;28;20173;-84
2021/05/08 03:36:40;;;;;;;9.15;6.85;;;5.40;99.90;;;;;;5097995;28;20114;-84
2021/05/08 03:39:06;;;;;;;10.57;7.65;;;5.40;99.90;;;;;;5098143;28;20038;-85
2021/05/08 03:41:32;;;;;;;10.20;7.28;;;5.40;99.90;;;;;;5097702;28;20093;-85
2021/05/08 03:43:58;;;;;;;9.70;7.30;;;5.40;99.90;;;;;;5097829;28;20482;-85
2021/05/08 03:46:24;;;;;;;10.13;7.20;;;5.40;99.90;;;;;;5098040;28;20116;-85
2021/05/08 03:48:50;;;;;;;8.93;6.50;;;5.30;99.90;;;;;;5080560;28;20027;-84
2021/05/08 03:51:17;;;;;;;10.63;7.80;;;5.40;99.90;;;;;;5115938;28;20027;-84
2021/05/08 03:53:43;;;;;;;9.65;7.60;;;5.40;99.90;;;;;;5098269;28;20077;-84
2021/05/08 03:56:10;;;;;;;8.18;6.68;;;5.40;99.90;;;;;;5080764;28;20048;-84
2021/05/08 03:58:37;;;;;;;9.43;7.47;;;5.40;99.90;;;;;;5081179;28;20036;-84
2021/05/08 04:01:08;;;;;;;9.93;7.97;;;5.40;99.90;;;;;;5081206;28;20119;-84
2021/05/08 04:03:34;;;;;;;10.20;7.40;;;5.30;99.90;;;;;;5080787;28;20040;-84
2021/05/08 04:06:00;;;;;;;10.27;7.88;;;5.20;99.90;;;;;;5115444;28;20028;-84
2021/05/08 04:08:26;;;;;;;9.40;7.40;;;5.20;99.90;;;;;;5080598;28;20093;-85
2021/05/08 04:10:52;;;;;;;9.02;7.00;;;5.10;99.90;;;;;;5097145;28;20403;-85
2021/05/08 04:13:18;;;;;;;11.07;8.27;;;5.10;99.90;;;;;;5080682;28;20036;-84
2021/05/08 04:15:46;;;;;;;8.55;6.82;;;5.10;99.90;;;;;;5097435;28;20051;-84
2021/05/08 04:18:13;;;;;;;10.23;7.95;;;5.00;99.90;;;;;;5063568;28;20407;-84
2021/05/08 04:20:40;;;;;;;9.10;7.03;;;5.00;99.90;;;;;;5080943;28;20042;-85
2021/05/08 04:23:07;;;;;;;11.75;8.02;;;5.00;99.90;;;;;;5097164;28;20077;-84
2021/05/08 04:25:36;;;;;;;9.85;7.30;;;5.00;99.90;;;;;;5062785;28;20042;-84
2021/05/08 04:28:02;;;;;;;10.15;7.43;;;5.00;99.90;;;;;;5097009;28;20580;-85
2021/05/08 04:30:31;;;;;;;10.73;8.15;;;5.00;99.90;;;;;;5097050;28;20030;-84
2021/05/08 04:32:57;;;;;;;10.55;7.38;;;5.10;99.90;;;;;;5096908;28;20403;-84
2021/05/08 04:35:23;;;;;;;10.10;7.22;;;5.10;99.90;;;;;;5114777;28;20047;-84
2021/05/08 04:37:49;;;;;;;9.73;7.45;;;5.10;99.90;;;;;;5095876;28;20035;-84
2021/05/08 04:40:16;;;;;;;10.05;7.75;;;5.20;99.90;;;;;;5096780;28;20040;-84
2021/05/08 04:42:43;;;;;;;9.63;7.50;;;5.30;99.90;;;;;;5096735;28;20093;-85
2021/05/08 04:45:09;;;;;;;10.13;8.18;;;5.40;99.90;;;;;;5078964;28;20476;-85
2021/05/08 04:47:37;;;;;;;10.00;8.02;;;5.50;99.90;;;;;;5096878;28;20043;-85
2021/05/08 04:50:04;;;;;;;10.40;7.72;;;5.60;99.90;;;;;;5063014;28;20042;-85
2021/05/08 04:52:30;;;;;;;10.32;8.15;;;5.70;99.90;;;;;;5096467;28;20024;-84
2021/05/08 04:54:56;;;;;;;10.55;8.30;;;5.80;99.90;;;;;;5096249;28;20135;-85
2021/05/08 04:57:22;;;;;;;11.32;8.18;;;6.00;99.90;;;;;;5096509;28;20110;-85
2021/05/08 04:59:50;;;;;;;9.98;7.50;;;6.00;99.90;;;;;;5096161;28;20096;-84
2021/05/08 05:02:18;;;;;;;9.98;8.00;;;6.20;99.90;;;;;;5096274;28;20039;-85
2021/05/08 05:04:44;;;;;;;9.27;7.65;;;6.30;99.90;;;;;;5095863;28;20035;-85
2021/05/08 05:07:09;;;;;;;10.20;7.70;;;6.30;99.90;;;;;;5079376;28;20032;-85
2021/05/08 05:09:38;;;;;;;10.07;7.63;;;6.40;99.90;;;;;;5096062;28;20039;-85
2021/05/08 05:12:05;;;;;;;11.02;7.55;;;6.50;99.90;;;;;;5096337;28;20460;-85
2021/05/08 05:14:31;;;;;;;9.02;6.90;;;6.50;99.90;;;;;;5096457;28;20046;-85
2021/05/08 05:16:57;;;;;;;12.73;9.98;;;6.60;99.90;;;;;;5096323;28;20065;-85
2021/05/08 05:19:26;;;;;;;14.50;10.30;;;6.60;99.90;;;;;;5079475;28;20036;-85
2021/05/08 05:21:53;;;;;;;16.45;12.32;;;6.60;99.90;;;;;;5096321;28;20035;-84
2021/05/08 05:24:21;;;;;;;12.93;10.20;;;6.60;99.90;;;;;;5113016;28;20031;-84
2021/05/08 05:26:47;;;;;;;12.88;10.02;;;6.50;99.90;;;;;;5113400;28;20030;-86
2021/05/08 05:29:16;;;;;;;12.63;9.88;;;6.60;99.90;;;;;;5114206;28;20040;-84
2021/05/08 05:31:43;;;;;;;13.68;8.80;;;6.60;99.90;;;;;;5095980;28;20043;-84
2021/05/08 05:34:10;;;;;;;11.90;8.38;;;6.70;99.90;;;;;;5095763;28;20464;-84
2021/05/08 05:36:41;;;;;;;10.30;7.47;;;6.80;99.90;;;;;;5095827;28;20050;-87
2021/05/08 05:39:08;;;;;;;10.27;7.57;;;6.80;99.90;;;;;;5096024;28;20123;-85
2021/05/08 05:41:35;;;;;;;9.82;7.80;;;6.90;99.90;;;;;;5079271;28;20104;-84
2021/05/08 05:44:05;;;;;;;9.18;7.35;;;7.00;99.90;;;;;;5095349;28;20122;-85
2021/05/08 05:46:34;;;;;;;9.45;7.45;;;7.00;99.90;;;;;;5079749;28;20066;-85
2021/05/08 05:49:00;;;;;;;10.82;8.90;;;7.20;99.90;;;;;;5097885;28;20028;-84
2021/05/08 05:51:28;;;;;;;10.45;8.38;;;7.40;99.90;;;;;;5100179;28;20044;-85
2021/05/08 05:53:57;;;;;;;10.32;7.95;;;7.50;99.90;;;;;;5100298;28;20036;-85
2021/05/08 05:56:29;;;;;;;11.70;8.57;;;7.60;99.90;;;;;;5099932;28;20032;-85
2021/05/08 05:58:55;;;;;;;11.18;8.43;;;7.70;99.90;;;;;;5098756;28;20036;-85
2021/05/08 06:01:21;;;;;;;10.27;7.85;;;7.70;99.90;;;;;;5100278;28;20032;-86
2021/05/08 06:03:49;;;;;;;11.18;8.27;;;7.80;99.90;;;;;;5099955;28;20067;-85
2021/05/08 06:06:16;;;;;;;9.77;8.18;;;7.90;99.90;;;;;;5100421;28;20071;-84
2021/05/08 06:08:42;;;;;;;11.40;9.20;;;7.90;99.90;;;;;;5099686;28;20028;-84
2021/05/08 06:11:10;;;;;;;11.77;9.05;;;8.00;99.90;;;;;;5099943;28;20139;-84
2021/05/08 06:13:39;;;;;;;13.85;9.75;;;8.00;99.90;;;;;;5099704;28;20035;-84
2021/05/08 06:16:06;;;;;;;12.38;8.77;;;8.10;99.90;;;;;;5099578;28;20122;-84
2021/05/08 06:18:38;;;;;;;10.80;7.85;;;8.20;99.90;;;;;;5099555;28;20439;-84
2021/05/08 06:21:04;;;;;;;12.52;8.77;;;8.30;99.90;;;;;;5099710;28;20499;-85
2021/05/08 06:23:31;;;;;;;10.23;8.00;;;8.40;99.90;;;;;;5099569;28;20031;-83
2021/05/08 06:25:57;;;;;;;10.85;7.93;;;8.50;99.90;;;;;;5082860;28;20082;-85
2021/05/08 06:28:23;;;;;;;14.40;9.65;;;8.50;99.90;;;;;;5082602;28;20063;-84
2021/05/08 06:30:49;;;;;;;11.23;8.40;;;8.60;99.90;;;;;;5099434;28;20122;-83
2021/05/08 06:33:17;;;;;;;12.15;8.93;;;8.60;99.90;;;;;;5082508;28;20044;-87
2021/05/08 06:35:44;;;;;;;11.68;8.65;;;8.70;99.90;;;;;;5081658;28;20435;-86
2021/05/08 06:38:09;;;;;;;11.80;9.05;;;8.70;99.90;;;;;;5065651;28;20047;-85
2021/05/08 06:40:35;;;;;;;11.07;8.30;;;8.80;99.90;;;;;;5099282;28;20035;-84
2021/05/08 06:43:03;;;;;;;13.77;8.52;;;8.90;99.90;;;;;;5117093;28;20518;-83
2021/05/08 06:45:30;;;;;;;10.90;8.88;;;8.90;99.90;;;;;;5081571;28;20047;-85
2021/05/08 06:48:02;;;;;;;11.23;8.35;;;9.00;99.90;;;;;;5098162;28;20046;-84
2021/05/08 06:50:30;;;;;;;10.20;8.02;;;9.00;99.90;;;;;;5098928;28;20046;-84
2021/05/08 06:53:00;;;;;;;11.68;7.90;;;9.00;99.90;;;;;;5095639;28;20031;-84
2021/05/08 06:55:26;;;;;;;10.77;8.07;;;9.10;99.90;;;;;;5101727;28;20035;-84
2021/05/08 06:57:53;;;;;;;9.35;7.80;;;9.10;99.90;;;;;;5087020;28;20471;-84
2021/05/08 07:00:33;;;;;;;11.63;8.05;;;9.20;99.90;;;;;;5084961;28;20049;-85
2021/05/08 07:03:00;;;;;;;9.90;7.78;;;9.30;99.90;;;;;;5087728;28;20089;-85
2021/05/08 07:05:28;;;;;;;11.68;8.25;;;9.30;99.90;;;;;;5079557;28;20028;-85
2021/05/08 07:08:20;;;;;;;12.60;8.88;;;9.40;99.90;;;;;;5084636;28;20031;-84
2021/05/08 07:10:50;;;;;;;13.18;9.10;;;9.50;99.90;;;;;;5102147;28;20036;-84
2021/05/08 07:13:17;;;;;;;10.80;8.48;;;9.40;99.90;;;;;;5101470;28;20028;-85
2021/05/08 07:15:43;;;;;;;10.65;8.02;;;9.50;99.90;;;;;;5103356;28;20036;-85
2021/05/08 07:18:10;;;;;;;10.82;7.60;;;9.60;99.90;;;;;;5091304;28;20039;-85
2021/05/08 07:20:39;;;;;;;10.40;8.23;;;9.70;99.90;;;;;;5085759;28;20040;-85
2021/05/08 07:23:10;;;;;;;10.57;7.88;;;9.80;99.90;;;;;;5083124;28;20051;-85
2021/05/08 07:25:39;;;;;;;10.55;7.82;;;9.90;99.90;;;;;;5103258;28;20028;-85
2021/05/08 07:28:15;;;;;;;10.95;7.70;;;10.00;99.90;;;;;;5067150;28;20111;-84
2021/05/08 07:30:48;;;;;;;10.10;7.90;;;10.10;99.90;;;;;;5086783;28;20036;-85
2021/05/08 07:33:16;;;;;;;9.65;7.15;;;10.20;99.20;;;;;;5086506;28;20139;-85
2021/05/08 07:35:50;;;;;;;13.55;8.18;;;10.40;99.30;;;;;;5084527;28;20036;-85
2021/05/08 07:38:23;;;;;;;11.07;7.45;;;10.40;98.20;;;;;;5112964;28;20040;-85
2021/05/08 07:40:54;;;;;;;9.18;6.45;;;10.50;98.70;;;;;;5095730;28;20114;-85
2021/05/08 07:43:25;;;;;;;11.13;7.30;;;10.60;99.00;;;;;;5092564;28;20039;-85
2021/05/08 07:45:57;;;;;;;10.73;6.38;;;10.70;98.50;;;;;;5063717;28;20064;-84
2021/05/08 07:48:27;;;;;;;11.20;6.78;;;10.80;98.30;;;;;;5075811;28;20044;-85
2021/05/08 07:50:53;;;;;;;9.57;6.45;;;10.90;97.80;;;;;;5083279;28;20040;-85
2021/05/08 07:53:20;;;;;;;8.88;6.60;;;11.00;97.90;;;;;;5090012;28;20576;-84
2021/05/08 07:55:49;;;;;;;9.88;6.97;;;11.10;96.30;;;;;;5086633;28;20101;-84
2021/05/08 07:58:38;;;;;;;8.13;6.57;;;11.10;95.60;;;;;;5091804;28;20122;-84
2021/05/08 08:01:05;;;;;;;10.68;7.30;;;11.20;96.10;;;;;;5067492;28;20545;-84
2021/05/08 08:03:33;;;;;;;11.32;7.53;;;11.10;95.80;;;;;;5092503;28;20498;-84
2021/05/08 08:06:04;;;;;;;10.60;7.05;;;11.10;95.50;;;;;;5069086;28;20032;-84
2021/05/08 08:08:44;;;;;;;8.35;6.65;;;11.20;96.10;;;;;;5101810;28;20082;-86
2021/05/08 08:11:16;;;;;;;9.85;7.15;;;11.30;96.20;;;;;;5087714;28;20031;-83
2021/05/08 08:13:43;;;;;;;9.38;6.60;;;11.30;96.20;;;;;;5068790;28;20040;-84
2021/05/08 08:16:10;;;;;;;11.13;7.80;;;11.30;95.90;;;;;;5067109;28;20040;-84
2021/05/08 08:18:36;;;;;;;9.98;7.43;;;11.30;95.90;;;;;;5092398;28;20495;-84
2021/05/08 08:21:05;;;;;;;10.38;5.88;;;11.40;96.30;;;;;;5103707;28;20081;-84
2021/05/08 08:23:35;;;;;;;9.98;6.75;;;11.40;96.80;;;;;;5071388;28;20036;-84
2021/05/08 08:26:02;;;;;;;9.85;6.63;;;11.50;96.60;;;;;;5106907;28;20036;-84
2021/05/08 08:28:36;;;;;;;10.27;6.93;;;11.60;96.80;;;;;;5100745;28;20040;-86
2021/05/08 08:31:02;;;;;;;9.88;6.50;;;11.60;96.20;;;;;;5064189;28;20506;-85
2021/05/08 08:33:28;;;;;;;9.52;6.70;;;11.60;96.40;;;;;;5083315;28;20032;-86
2021/05/08 08:35:54;;;;;;;9.38;6.38;;;11.70;96.40;;;;;;5083539;28;20031;-85
2021/05/08 08:38:23;;;;;;;12.38;6.88;;;11.80;96.40;;;;;;5103616;28;20080;-85
2021/05/08 08:40:52;;;;;;;8.82;6.05;;;11.80;95.20;;;;;;5085027;28;20031;-85
2021/05/08 08:43:18;;;;;;;9.20;6.20;;;11.90;95.80;;;;;;5087962;28;20044;-83
2021/05/08 08:45:46;;;;;;;9.95;5.95;;;12.00;95.50;;;;;;5081283;28;20040;-85
2021/05/08 08:48:13;;;;;;;9.15;5.63;;;12.00;94.90;;;;;;5083831;28;20141;-84
2021/05/08 08:50:41;;;;;;;9.65;5.75;;;12.10;95.20;;;;;;5076224;28;20036;-84
2021/05/08 08:53:13;;;;;;;9.27;6.05;;;12.20;94.90;;;;;;5068638;28;20064;-84
2021/05/08 08:56:05;;;;;;;8.57;5.95;;;12.30;95.00;;;;;;5104052;28;20192;-83
2021/05/08 08:58:35;;;;;;;7.75;5.25;;;12.40;94.50;;;;;;5081505;28;20130;-84
2021/05/08 09:01:05;;;;;;;7.75;5.40;;;12.50;95.10;;;;;;5068023;28;20457;-84
2021/05/08 09:03:33;;;;;;;12.18;6.30;;;12.70;94.90;;;;;;5083764;28;20028;-82
2021/05/08 09:06:01;;;;;;;10.35;5.80;;;12.80;94.20;;;;;;5083765;28;20085;-83
2021/05/08 09:08:31;;;;;;;7.40;5.22;;;12.80;94.30;;;;;;5085268;28;20456;-83
2021/05/08 09:11:27;;;;;;;7.85;5.60;;;13.00;94.30;;;;;;5082528;28;20039;-84
2021/05/08 09:14:25;;;;;;;9.90;6.03;;;13.00;94.20;;;;;;5102694;28;20028;-84
2021/05/08 09:17:09;;;;;;;9.70;6.55;;;13.20;93.50;;;;;;5083152;28;20040;-84
2021/05/08 09:19:48;;;;;;;8.50;5.78;;;13.40;93.40;;;;;;5092016;28;20035;-85
2021/05/08 09:22:44;;;;;;;8.70;5.45;;;13.50;93.50;;;;;;5082812;28;20040;-84
2021/05/08 09:25:17;;;;;;;9.38;5.13;;;13.60;93.30;;;;;;5071412;28;20032;-85
2021/05/08 09:27:58;;;;;;;6.65;4.38;;;13.70;93.50;;;;;;5087239;28;20464;-84
2021/05/08 09:30:30;;;;;;;7.05;4.30;;;13.80;93.70;;;;;;5076404;28;20039;-84
2021/05/08 09:33:00;;;;;;;11.20;5.13;;;13.90;93.60;;;;;;5093799;28;20510;-84
2021/05/08 09:36:08;;;;;;;8.95;5.63;;;13.90;93.50;;;;;;5093463;28;20040;-85
2021/05/08 09:38:42;;;;;;;8.32;5.13;;;14.00;92.30;;;;;;5084129;28;20024;-84
2021/05/08 09:41:11;;;;;;;9.02;5.78;;;14.00;93.10;;;;;;5072921;28;20036;-83
2021/05/08 09:43:37;;;;;;;8.40;5.10;;;14.00;92.00;;;;;;5089919;28;20373;-84
2021/05/08 09:46:07;;;;;;;8.05;4.90;;;14.00;91.40;;;;;;5072247;28;20048;-85
2021/05/08 09:48:35;;;;;;;7.55;4.57;;;14.00;91.50;;;;;;5111468;28;20031;-83
2021/05/08 09:51:34;;;;;;;7.50;4.72;;;14.00;91.70;;;;;;5093458;28;20078;-85
2021/05/08 09:54:15;;;;;;;8.82;5.65;;;14.10;90.70;;;;;;5093298;28;20463;-85
2021/05/08 09:56:46;;;;;;;5.97;4.38;;;14.20;90.90;;;;;;5093362;28;20389;-85
2021/05/08 09:59:42;;;;;;;7.60;4.95;;;14.40;90.70;;;;;;5091263;28;20027;-85
2021/05/08 10:02:15;;;;;;;7.32;4.55;;;14.50;90.60;;;;;;5092923;28;20031;-85
2021/05/08 10:04:46;;;;;;;;;;;14.60;90.50;;;;;;5110966;28;20040;-84
2021/05/08 10:07:15;;;;;;;5.95;3.53;;;14.60;90.50;;;;;;5091656;28;19911;-85
2021/05/08 10:10:01;;;;;;;11.02;4.05;;;14.60;90.60;;;;;;5105759;28;20028;-84
2021/05/08 10:12:29;;;;;;;6.22;3.80;;;14.60;90.80;;;;;;5085817;28;20024;-85
2021/05/08 10:14:57;;;;;;;7.95;4.20;;;14.70;90.90;;;;;;5089873;28;20035;-84
2021/05/08 10:17:28;;;;;;;8.23;4.78;;;14.70;90.10;;;;;;5105456;28;20102;-85
2021/05/08 10:20:02;;;;;;;8.85;4.60;;;14.70;89.40;;;;;;5090111;28;20035;-86
2021/05/08 10:22:35;;;;;;;6.70;3.85;;;14.70;88.60;;;;;;5103108;28;20035;-86
2021/05/08 10:25:07;;;;;;;5.88;3.50;;;14.70;90.30;;;;;;5093731;28;20481;-85
2021/05/08 10:27:33;;;;;;;5.82;3.08;;;14.70;90.40;;;;;;5091984;28;20031;-84
2021/05/08 10:29:59;;;;;;;5.97;2.80;;;14.60;90.20;;;;;;5090284;28;20028;-84
2021/05/08 10:32:31;;;;;;;4.88;2.85;;;14.30;90.10;;;;;;5104115;28;20023;-83
2021/05/08 10:35:04;;;;;;;4.13;2.22;;;14.20;90.60;;;;;;5086211;28;20123;-84
2021/05/08 10:37:31;;;;;;;5.05;2.28;;;14.20;91.30;;;;;;5094292;28;20532;-84
2021/05/08 10:40:11;;;;;;;5.57;2.70;;;14.40;91.60;;;;;;5096727;28;20039;-85
2021/05/08 10:42:44;;;;;;;4.63;2.80;;;14.60;91.30;;;;;;5089468;28;20081;-84
2021/05/08 10:45:40;;;;;;;;;;;14.70;91.10;;;;;;5102092;27;20048;-84
2021/05/08 10:48:07;;;;;;;5.60;3.45;;;14.60;90.70;;;;;;5107629;27;19910;-86
2021/05/08 10:50:42;;;;;;;5.45;3.30;;;14.50;91.00;;;;;;5105231;27;20069;-85
2021/05/08 10:53:10;;;;;;;6.20;2.80;;;14.50;90.40;;;;;;5108231;27;20070;-83
2021/05/08 10:55:56;;;;;;;5.38;2.97;;;14.60;90.80;;;;;;5101857;28;20050;-84
2021/05/08 10:58:27;;;;;;;6.55;3.72;;;14.50;91.10;;;;;;5107711;27;20106;-82
2021/05/08 11:01:00;;;;;;;7.50;3.45;;;14.50;90.40;;;;;;5107732;27;20402;-83
2021/05/08 11:03:53;;;;;;;4.78;2.58;;;14.40;90.80;;;;;;5119833;27;20068;-85
2021/05/08 11:06:25;;;;;;;5.75;3.08;;;14.40;91.60;;;;;;5103717;27;20035;-84
2021/05/08 11:09:00;;;;;;;7.00;3.95;;;14.20;92.30;;;;;;5105553;27;20015;-87
2021/05/08 11:11:50;;;;;;;9.40;4.22;;;14.00;92.90;;;;;;5103979;27;20035;-85
2021/05/08 11:14:57;;;;;;;6.18;3.95;;;13.80;93.70;;;;;;5104886;27;20425;-86
2021/05/08 11:18:10;;;;;;;6.47;4.00;;;13.50;93.80;;;;;;5105716;27;20080;-85
2021/05/08 11:20:46;;;;;;;5.85;4.10;;;13.20;95.30;;;;;;5101472;27;20039;-86
2021/05/08 11:23:20;;;;;;;5.38;3.72;;;13.10;95.50;;;;;;5101005;27;20041;-84
2021/05/08 11:25:46;;;;;;;5.40;3.42;;;12.90;95.40;;;;;;5101884;27;20043;-84
2021/05/08 11:28:18;;;;;;;4.68;3.35;;;12.90;96.00;;;;;;5104884;27;20114;-85
2021/05/08 11:30:54;;;;;;;6.13;3.42;;;12.80;96.20;;;;;;5103928;28;20034;-84
2021/05/08 11:33:29;;;;;;;7.88;3.40;;;12.70;96.90;;;;;;5114061;28;20028;-83
2021/05/08 11:36:06;;;;;;;6.75;3.10;;;12.70;97.30;;;;;;5095768;28;20039;-88
2021/05/08 11:38:37;;;;;;;4.70;3.03;;;12.60;97.40;;;;;;5078882;28;20036;-84
2021/05/08 11:41:24;;;;;;;6.05;3.25;;;12.30;98.80;;;;;;5096172;28;20067;-85
2021/05/08 11:43:55;;;;;;;5.32;3.13;;;12.10;99.90;;;;;;5096441;28;20047;-85
2021/05/08 11:46:28;;;;;;;5.05;3.10;;;12.00;99.90;;;;;;5075498;28;20063;-85
2021/05/08 11:48:54;;;;;;;5.55;3.58;;;11.70;99.90;;;;;;5075533;28;20040;-84
2021/05/08 11:51:21;;;;;;;5.80;3.83;;;11.60;99.90;;;;;;5075333;28;20085;-85
2021/05/08 11:54:11;;;;;;;6.18;3.65;;;11.50;99.90;;;;;;5092979;28;20317;-81
2021/05/08 11:56:38;;;;;;;8.68;4.25;;;11.30;99.90;;;;;;5074586;28;20480;-83
2021/05/08 11:59:06;;;;;;;7.20;4.45;;;11.10;99.90;;;;;;5074543;28;20063;-81
2021/05/08 12:01:33;;;;;;;7.43;4.05;;;11.00;99.90;;;;;;5074971;28;20038;-84
2021/05/08 12:04:05;;;;;;;6.15;4.07;;;10.90;99.90;;;;;;5074562;28;20530;-83
2021/05/08 12:06:32;;;;;;;6.60;4.68;;;10.80;99.90;;;;;;5075434;28;20384;-85
2021/05/08 12:09:13;;;;;;;7.78;5.25;;;10.70;99.90;;;;;;5075751;28;20028;-84
2021/05/08 12:11:39;;;;;;;5.80;4.82;;;10.60;99.90;;;;;;5075388;28;20032;-86
2021/05/08 12:14:15;;;;;;;6.65;4.25;;;10.50;99.90;;;;;;5075887;28;20084;-87
2021/05/08 12:16:43;;;;;;;8.45;5.50;;;10.50;99.90;;;;;;5069839;28;20044;-89
2021/05/08 12:19:20;;;;;;;8.52;5.15;;;10.40;99.90;;;;;;5096432;28;20066;-87
2021/05/08 12:21:46;;;;;;;8.68;5.40;;;10.30;99.90;;;;;;5077361;28;20089;-86
2021/05/08 12:24:17;;;;;;;8.88;5.20;;;10.20;99.90;;;;;;5075710;28;20550;-87
2021/05/08 12:26:55;;;;;;;8.95;5.85;;;10.20;99.90;;;;;;5109278;28;20537;-88
2021/05/08 12:29:47;;;;;;;7.38;5.78;;;10.20;99.90;;;;;;5085507;28;20032;-89
2021/05/08 12:32:23;;;;;;;7.68;5.90;;;10.20;99.90;;;;;;5086990;28;20036;-93
2021/05/08 12:34:58;;;;;;;8.45;6.20;;;10.20;99.90;;;;;;5075848;28;20085;-90
2021/05/08 12:37:24;;;;;;;8.23;6.13;;;10.20;99.90;;;;;;5065132;28;20123;-90
2021/05/08 12:39:57;;;;;;;9.70;6.40;;;10.20;99.90;;;;;;5081631;28;20127;-89
2021/05/08 12:42:40;;;;;;;11.88;7.18;;;10.20;99.90;;;;;;5079928;28;20094;-89
2021/05/08 12:45:07;;;;;;;11.25;6.93;;;10.20;99.90;;;;;;5082719;28;20056;-91
2021/05/08 12:47:39;;;;;;;12.70;7.43;;;10.20;99.90;;;;;;5081083;28;20028;-90
2021/05/08 12:50:26;;;;;;;9.15;7.13;;;10.20;99.90;;;;;;5080895;28;20177;-91
2021/05/08 12:53:04;;;;;;;9.93;7.45;;;10.20;99.90;;;;;;5076841;28;20028;-89
2021/05/08 12:55:40;;;;;;;9.40;6.97;;;10.30;99.90;;;;;;5080087;28;20047;-89
2021/05/08 12:58:15;;;;;;;9.57;6.25;;;10.30;99.90;;;;;;5080420;28;20039;-92
2021/05/08 13:00:51;;;;;;;8.45;6.50;;;10.20;99.90;;;;;;5082650;28;20027;-90
2021/05/08 13:06:02;;;;;;;8.15;6.45;;;10.10;99.90;;;;;;5108925;28;20053;-90
2021/05/08 13:08:45;;;;;;;10.65;6.97;;;10.10;99.90;;;;;;5093002;28;20368;-90
2021/05/08 13:11:11;;;;;;;9.80;6.27;;;10.20;99.90;;;;;;5080067;28;20180;-91